Time;durP1;ratioP1;P1;durP2;ratioP2;P2;SDS_P1;SDS_P2;PMS_P1;PMS_P2;Temp;Humidity;BMP_temperature;BMP_pressure;BME280_temperature;BME280_humidity;BME280_pressure;Samples;Min_cycle;Max_cycle;Signal;HPM_P1;HPM_P2
2023/02/20 00:00:31;;;;;;;1.52;0.82;;;;;;;9.93;91.02;101402.75;5048501;28;20053;-47
2023/02/20 00:02:58;;;;;;;2.42;0.98;;;;;;;9.90;91.25;101386.81;5046638;28;20060;-46
2023/02/20 00:05:24;;;;;;;2.08;1.77;;;;;;;9.90;91.30;101395.09;5044140;28;20160;-53
2023/02/20 00:07:51;;;;;;;1.33;0.90;;;;;;;9.90;91.48;101400.63;5049026;28;20091;-45
2023/02/20 00:10:18;;;;;;;1.98;1.15;;;;;;;9.90;91.48;101392.34;5047081;28;20049;-46
2023/02/20 00:12:45;;;;;;;1.63;0.80;;;;;;;9.88;91.42;101394.63;5029135;28;20099;-45
2023/02/20 00:15:18;;;;;;;1.50;0.93;;;;;;;9.88;91.51;101399.34;5043651;28;20044;-45
2023/02/20 00:17:48;;;;;;;2.58;0.90;;;;;;;9.87;91.69;101393.00;5048942;28;20045;-45
2023/02/20 00:20:18;;;;;;;1.02;0.80;;;;;;;9.86;91.71;101407.97;5046663;28;20045;-46
2023/02/20 00:22:45;;;;;;;1.73;1.60;;;;;;;9.86;91.73;101387.78;5047047;28;20457;-46
2023/02/20 00:25:12;;;;;;;1.70;1.55;;;;;;;9.86;91.72;101385.84;5044326;28;20494;-47
2023/02/20 00:27:38;;;;;;;4.75;0.88;;;;;;;9.86;91.73;101391.38;5039761;28;21341;-46
2023/02/20 00:30:06;;;;;;;6.30;1.08;;;;;;;9.86;91.79;101387.78;5044252;28;20072;-47
2023/02/20 00:32:33;;;;;;;0.98;0.85;;;;;;;9.84;91.88;101382.59;5031474;28;20045;-47
2023/02/20 00:34:59;;;;;;;0.77;0.60;;;;;;;9.85;91.90;101386.19;5033017;28;20056;-46
2023/02/20 00:37:26;;;;;;;1.20;0.88;;;;;;;9.83;91.97;101383.72;5046627;28;20056;-47
2023/02/20 00:39:53;;;;;;;1.25;0.88;;;;;;;9.82;92.01;101382.13;5036734;28;20039;-46
2023/02/20 00:42:20;;;;;;;1.92;0.90;;;;;;;9.82;92.33;101391.19;5035282;28;20140;-46
2023/02/20 00:44:46;;;;;;;3.45;1.05;;;;;;;9.82;92.18;101385.66;5031856;28;20052;-49
2023/02/20 00:47:13;;;;;;;2.00;1.00;;;;;;;9.84;92.51;101387.31;5034692;28;20191;-45
2023/02/20 00:49:40;;;;;;;1.23;0.93;;;;;;;9.85;92.36;101394.47;5035126;28;20053;-47
2023/02/20 00:52:07;;;;;;;2.72;0.75;;;;;;;9.86;92.35;101391.38;5043439;28;20049;-45
2023/02/20 00:54:33;;;;;;;1.45;0.80;;;;;;;9.87;92.41;101387.47;5040225;28;20061;-46
2023/02/20 00:57:00;;;;;;;1.50;0.88;;;;;;;9.88;92.38;101389.09;5030792;28;20060;-46
2023/02/20 00:59:27;;;;;;;1.60;1.27;;;;;;;9.90;92.54;101389.56;5030141;28;20045;-46
2023/02/20 01:01:54;;;;;;;1.90;1.15;;;;;;;9.92;92.52;101392.03;5047733;28;20449;-52
2023/02/20 01:04:21;;;;;;;1.58;0.90;;;;;;;9.92;92.50;101384.56;5048048;28;20127;-45
2023/02/20 01:06:48;;;;;;;7.00;0.88;;;;;;;9.93;92.52;101383.41;5048212;28;20068;-50
2023/02/20 01:09:14;;;;;;;1.23;1.13;;;;;;;9.93;92.35;101386.16;5046229;28;20132;-45
2023/02/20 01:11:42;;;;;;;1.67;0.95;;;;;;;9.91;92.54;101371.84;5037347;28;20075;-49
2023/02/20 01:14:10;;;;;;;2.13;0.77;;;;;;;9.90;92.55;101356.38;5017038;28;20049;-48
2023/02/20 01:16:43;;;;;;;1.15;0.68;;;;;;;9.89;92.65;101357.53;5047871;28;20152;-51
2023/02/20 01:19:11;;;;;;;1.00;0.65;;;;;;;9.88;92.60;101344.03;5048224;28;20486;-48
2023/02/20 01:21:37;;;;;;;2.03;1.00;;;;;;;9.86;92.57;101352.66;5048874;28;20131;-46
2023/02/20 01:24:06;;;;;;;2.45;0.50;;;;;;;9.85;92.63;101351.03;5047487;28;20049;-48
2023/02/20 01:26:32;;;;;;;0.85;0.80;;;;;;;9.82;92.70;101351.69;5051510;28;20110;-46
2023/02/20 01:28:59;;;;;;;4.55;1.13;;;;;;;9.82;92.86;101357.22;5050106;28;20045;-45
2023/02/20 01:31:26;;;;;;;1.42;0.70;;;;;;;9.82;92.82;101353.66;5051923;28;20041;-45
2023/02/20 01:33:53;;;;;;;1.10;0.90;;;;;;;9.84;92.90;101362.41;5058989;28;20041;-49
2023/02/20 01:36:20;;;;;;;3.28;0.85;;;;;;;9.86;92.97;101351.84;5055303;28;20045;-48
2023/02/20 01:38:49;;;;;;;3.20;0.93;;;;;;;9.87;93.07;101348.75;5034316;28;20077;-46
2023/02/20 01:41:17;;;;;;;0.80;0.57;;;;;;;9.87;92.77;101359.81;5033393;28;20514;-46
2023/02/20 01:43:45;;;;;;;2.35;1.02;;;;;;;9.89;92.91;101354.78;5050286;28;20179;-46
2023/02/20 01:46:38;;;;;;;2.03;0.63;;;;;;;9.90;92.96;101363.88;5036170;28;20518;-46
2023/02/20 01:49:12;;;;;;;0.70;0.60;;;;;;;9.92;92.76;101351.38;5029822;28;20069;-45
2023/02/20 01:51:44;;;;;;;2.65;1.08;;;;;;;9.93;92.58;101341.91;5046685;28;20076;-46
2023/02/20 01:54:15;;;;;;;0.93;0.80;;;;;;;9.91;92.69;101335.91;5040814;28;20355;-47
2023/02/20 01:56:45;;;;;;;3.63;0.80;;;;;;;9.91;92.78;101338.66;5041121;28;20037;-50
2023/02/20 01:59:14;;;;;;;1.65;0.70;;;;;;;9.91;92.65;101338.66;5029452;28;20041;-47
2023/02/20 02:01:42;;;;;;;0.85;0.55;;;;;;;9.92;92.74;101350.53;5049446;28;20059;-45
2023/02/20 02:04:11;;;;;;;1.08;0.60;;;;;;;9.92;92.55;101348.59;5049074;28;20052;-46
2023/02/20 02:06:45;;;;;;;1.50;0.60;;;;;;;9.91;92.59;101348.91;5051336;28;20490;-46
2023/02/20 02:09:37;;;;;;;1.58;0.57;;;;;;;9.89;92.53;101356.72;5051003;28;20441;-45
2023/02/20 02:12:06;;;;;;;1.83;0.47;;;;;;;9.86;92.56;101358.19;5052767;28;20059;-48
2023/02/20 02:14:33;;;;;;;1.50;0.80;;;;;;;9.86;92.58;101360.13;5050774;28;20445;-45
2023/02/20 02:17:27;;;;;;;0.45;0.35;;;;;;;9.85;92.48;101367.63;5050613;28;20048;-46
2023/02/20 02:20:07;;;;;;;;;;;;;;;9.86;92.83;101358.19;5049101;28;20119;-45
2023/02/20 02:23:11;;;;;;;1.55;0.77;;;;;;;9.89;92.51;101357.53;5032631;28;19978;-46
2023/02/20 02:25:47;;;;;;;2.55;1.17;;;;;;;9.91;92.61;101349.72;5039133;28;20078;-46
2023/02/20 02:28:38;;;;;;;1.05;0.68;;;;;;;9.93;92.46;101341.13;5041169;28;20206;-49
2023/02/20 02:31:11;;;;;;;1.58;0.50;;;;;;;9.94;92.42;101338.00;5032214;28;20050;-55
2023/02/20 02:33:59;;;;;;;2.25;0.80;;;;;;;9.90;92.35;101331.50;5045475;28;20044;-52
2023/02/20 02:36:45;;;;;;;0.70;0.52;;;;;;;9.88;92.61;101344.84;5016299;28;20446;-48
2023/02/20 02:39:47;;;;;;;0.60;0.57;;;;;;;9.87;92.61;101337.69;5036062;28;20458;-45
2023/02/20 02:42:54;;;;;;;1.42;0.50;;;;;;;9.91;92.79;101348.91;5028863;28;20132;-47
2023/02/20 02:45:30;;;;;;;1.30;0.77;;;;;;;9.92;92.64;101345.81;5013865;28;20491;-46
2023/02/20 02:48:19;;;;;;;1.38;0.40;;;;;;;9.94;92.57;101340.78;5043343;28;20123;-51
2023/02/20 02:50:51;;;;;;;0.90;0.40;;;;;;;9.98;92.64;101350.03;5037145;28;20038;-46
2023/02/20 02:53:18;;;;;;;0.32;0.30;;;;;;;10.00;92.56;101353.31;5033823;28;20052;-46
2023/02/20 02:55:45;;;;;;;0.55;0.55;;;;;;;10.02;92.55;101339.13;5034522;28;20128;-45
2023/02/20 02:58:13;;;;;;;2.33;0.47;;;;;;;10.04;92.53;101342.38;5039576;28;20137;-52
2023/02/20 03:00:54;;;;;;;1.30;0.50;;;;;;;10.05;92.56;101349.56;5028799;23;1288900;-51
2023/02/20 03:03:29;;;;;;;0.60;0.33;;;;;;;10.05;92.64;101347.63;5002350;28;20120;-46
2023/02/20 03:06:02;;;;;;;2.85;0.50;;;;;;;10.06;92.49;101346.44;4998809;28;20048;-47
2023/02/20 03:08:38;;;;;;;2.38;0.57;;;;;;;10.08;92.58;101349.72;5005616;28;20152;-47
2023/02/20 03:11:08;;;;;;;0.50;0.30;;;;;;;10.09;92.50;101337.50;4998068;28;20030;-46
2023/02/20 03:17:06;;;;;;;2.22;0.65;;;;;;;10.09;92.52;101340.25;5002561;28;20050;-46
2023/02/20 03:19:43;;;;;;;1.05;0.50;;;;;;;10.09;92.44;101340.25;4971740;28;20056;-46
2023/02/20 03:22:35;;;;;;;2.35;0.95;;;;;;;10.10;92.62;101341.09;5009043;28;20042;-46
2023/02/20 03:25:09;;;;;;;1.20;0.57;;;;;;;10.09;92.55;101337.50;5004208;28;20040;-46
2023/02/20 03:27:41;;;;;;;0.93;0.57;;;;;;;10.09;92.61;101337.50;5006141;28;20041;-47
2023/02/20 03:30:35;;;;;;;0.50;0.50;;;;;;;10.10;92.73;101330.03;5005440;28;20132;-47
2023/02/20 03:44:31;;;;;;;2.30;0.60;;;;;;;10.12;92.68;101311.97;5005278;28;20062;-46
2023/02/20 03:47:00;;;;;;;2.15;0.52;;;;;;;10.13;92.64;101321.91;4996957;28;20038;-49
2023/02/20 03:49:41;;;;;;;3.30;0.50;;;;;;;10.13;92.78;101310.84;4987862;28;20070;-46
2023/02/20 03:52:08;;;;;;;1.50;0.40;;;;;;;10.14;92.64;101309.69;5001026;28;20042;-46
2023/02/20 03:54:36;;;;;;;0.38;0.38;;;;;;;10.15;92.76;101297.50;4996386;28;20137;-46
2023/02/20 03:57:08;;;;;;;0.68;0.45;;;;;;;10.15;92.76;101308.56;5001359;28;20042;-47
2023/02/20 03:59:42;;;;;;;1.75;0.68;;;;;;;10.15;92.56;101305.78;4996708;28;20037;-47
2023/02/20 04:02:26;;;;;;;0.63;0.50;;;;;;;10.15;92.73;101314.09;4999171;28;20420;-46
2023/02/20 04:04:59;;;;;;;2.00;0.65;;;;;;;10.17;92.50;101311.81;4993725;28;20046;-47
2023/02/20 04:07:32;;;;;;;0.30;0.30;;;;;;;10.17;92.65;101297.97;5004769;28;20113;-47
2023/02/20 04:10:03;;;;;;;1.23;0.50;;;;;;;10.17;92.66;101303.50;4993326;28;20385;-47
2023/02/20 04:12:42;;;;;;;0.95;0.40;;;;;;;10.17;92.85;101294.38;4988142;28;20072;-47
2023/02/20 04:15:11;;;;;;;1.55;0.65;;;;;;;10.17;92.73;101297.97;5005878;28;20038;-47
2023/02/20 04:18:03;;;;;;;2.45;0.55;;;;;;;10.17;92.94;101297.97;4994440;28;20042;-46
2023/02/20 04:20:30;;;;;;;2.97;0.50;;;;;;;10.16;92.83;101301.91;5002355;28;20042;-50
2023/02/20 04:23:04;;;;;;;0.40;0.38;;;;;;;10.17;92.76;101297.16;5001548;28;20459;-47
2023/02/20 04:25:46;;;;;;;3.13;0.57;;;;;;;10.17;92.80;101288.84;4999588;28;20048;-46
2023/02/20 04:28:15;;;;;;;0.47;0.30;;;;;;;10.16;92.69;101290.00;4985759;28;20070;-49
2023/02/20 04:30:45;;;;;;;0.73;0.40;;;;;;;10.13;92.68;101291.47;4994587;28;20538;-46
2023/02/20 04:33:14;;;;;;;1.55;0.55;;;;;;;10.10;92.67;101280.22;5000950;28;20294;-48
2023/02/20 04:35:42;;;;;;;3.95;1.50;;;;;;;10.07;92.70;101292.75;5011608;28;20057;-47
2023/02/20 04:38:10;;;;;;;3.50;0.50;;;;;;;10.08;93.12;101291.63;5002340;28;20046;-46
2023/02/20 04:40:37;;;;;;;5.85;1.00;;;;;;;10.09;93.14;101298.78;4989305;28;20038;-46
2023/02/20 04:43:04;;;;;;;1.50;0.65;;;;;;;10.08;93.27;101302.69;5002834;28;20046;-51
2023/02/20 04:45:32;;;;;;;1.02;0.50;;;;;;;10.10;93.08;101291.28;5007328;28;20069;-46
2023/02/20 04:47:59;;;;;;;2.35;0.50;;;;;;;10.11;93.14;101288.19;5003627;28;20049;-48
2023/02/20 04:50:30;;;;;;;2.25;0.55;;;;;;;10.11;93.33;101290.16;4998910;28;21031;-57
2023/02/20 04:52:58;;;;;;;1.17;0.50;;;;;;;10.11;93.04;101273.56;5005417;28;20045;-53
2023/02/20 04:55:26;;;;;;;3.03;0.47;;;;;;;10.10;93.41;101269.97;4997550;28;20141;-54
2023/02/20 04:57:55;;;;;;;2.70;0.85;;;;;;;10.10;93.26;101281.03;5005243;28;20073;-48
2023/02/20 05:00:22;;;;;;;1.15;0.40;;;;;;;10.11;93.35;101284.63;5002534;28;20053;-47
2023/02/20 05:02:50;;;;;;;5.05;2.22;;;;;;;10.09;93.42;101287.69;5003115;28;20076;-55
2023/02/20 05:05:25;;;;;;;2.15;0.57;;;;;;;10.10;93.30;101292.09;5009200;28;20466;-48
2023/02/20 05:08:03;;;;;;;2.13;0.70;;;;;;;10.10;93.44;101296.81;4997214;28;20065;-46
2023/02/20 05:10:32;;;;;;;1.58;0.40;;;;;;;10.08;93.37;101294.41;4999884;28;20766;-46
2023/02/20 05:12:59;;;;;;;1.10;0.50;;;;;;;10.08;93.40;101302.69;5005650;28;20053;-52
2023/02/20 05:15:29;;;;;;;4.32;0.70;;;;;;;10.08;93.27;101280.56;5007117;28;20045;-48
2023/02/20 05:17:56;;;;;;;5.72;1.58;;;;;;;10.09;93.49;101284.13;5003963;28;20054;-47
2023/02/20 05:22:17;;;;;;;3.17;0.90;;;;;;;10.09;93.62;101290.47;5010186;28;20072;-46
2023/02/20 05:23:12;;;;;;;2.58;0.52;;;;;;;10.10;93.58;101274.69;5007059;28;20053;-50
2023/02/20 05:25:39;;;;;;;1.23;0.60;;;;;;;10.10;93.59;101285.75;5005497;28;20559;-49
2023/02/20 05:28:06;;;;;;;3.10;0.70;;;;;;;10.11;93.62;101288.19;5006259;28;20045;-48
2023/02/20 05:30:36;;;;;;;3.85;1.77;;;;;;;10.10;93.58;101297.63;4990736;28;20406;-48
2023/02/20 05:33:03;;;;;;;7.22;0.82;;;;;;;10.12;93.56;101283.47;5003381;28;20101;-47
2023/02/20 05:35:30;;;;;;;1.58;0.50;;;;;;;10.12;93.58;101289.84;5016060;28;20046;-47
2023/02/20 05:37:57;;;;;;;0.55;0.50;;;;;;;10.12;93.54;101284.31;5001645;28;20408;-46
2023/02/20 05:40:23;;;;;;;2.40;0.88;;;;;;;10.12;93.52;101284.31;5005253;28;20034;-47
2023/02/20 05:42:50;;;;;;;1.60;1.48;;;;;;;10.13;93.67;101288.72;5002795;28;20066;-46
2023/02/20 05:45:17;;;;;;;2.22;0.85;;;;;;;10.14;93.75;101293.09;5000427;28;20398;-47
2023/02/20 05:47:44;;;;;;;5.05;0.65;;;;;;;10.14;93.79;101284.00;5001862;28;20038;-47
2023/02/20 05:50:10;;;;;;;4.47;0.50;;;;;;;10.15;93.61;101294.72;5002675;28;20129;-46
2023/02/20 05:52:37;;;;;;;6.03;0.70;;;;;;;10.16;93.79;101295.53;5005808;28;20431;-46
2023/02/20 05:55:04;;;;;;;2.00;0.60;;;;;;;10.15;93.84;101294.72;4988317;28;20033;-50
2023/02/20 05:57:31;;;;;;;0.82;0.50;;;;;;;10.16;93.82;101298.31;5004938;28;20073;-46
2023/02/20 05:59:58;;;;;;;1.70;0.70;;;;;;;10.16;93.90;101307.44;4999845;28;20038;-52
2023/02/20 06:02:25;;;;;;;2.45;0.75;;;;;;;10.17;93.90;101300.75;5007965;28;20874;-47
2023/02/20 06:04:51;;;;;;;5.28;0.60;;;;;;;10.16;93.97;101290.84;5001950;28;20054;-52
2023/02/20 06:07:18;;;;;;;3.45;0.50;;;;;;;10.17;93.98;101303.50;5008370;28;20070;-46
2023/02/20 06:09:45;;;;;;;3.35;0.40;;;;;;;10.17;94.04;101292.44;5001554;28;20069;-47
2023/02/20 06:12:13;;;;;;;3.53;0.60;;;;;;;10.16;94.09;101288.06;4993252;28;20038;-47
2023/02/20 06:14:40;;;;;;;5.25;0.47;;;;;;;10.16;94.27;101287.25;5011115;28;20077;-47
2023/02/20 06:17:07;;;;;;;2.65;0.77;;;;;;;10.16;94.23;101284.47;5007543;28;20044;-46
2023/02/20 06:19:34;;;;;;;1.63;0.70;;;;;;;10.16;94.19;101278.94;5010693;28;20136;-47
2023/02/20 06:22:00;;;;;;;1.00;0.50;;;;;;;10.17;94.17;101286.09;4993378;28;20049;-47
2023/02/20 06:24:28;;;;;;;1.33;0.40;;;;;;;10.15;94.38;101277.31;5005959;28;20464;-47
2023/02/20 06:26:55;;;;;;;2.40;0.45;;;;;;;10.16;94.31;101276.19;5009237;28;20395;-46
2023/02/20 06:29:22;;;;;;;1.63;0.50;;;;;;;10.15;94.43;101280.06;5010813;28;20052;-46
2023/02/20 06:31:49;;;;;;;2.83;0.60;;;;;;;10.14;94.44;101276.50;4988017;28;20073;-46
2023/02/20 06:34:16;;;;;;;1.35;0.75;;;;;;;10.15;94.59;101269.00;5009873;28;20124;-48
2023/02/20 06:36:44;;;;;;;3.83;0.80;;;;;;;10.14;94.81;101261.88;5008018;28;20054;-47
2023/02/20 06:39:12;;;;;;;1.10;0.60;;;;;;;10.12;94.84;101270.47;5006327;28;20060;-48
2023/02/20 06:41:39;;;;;;;3.40;0.40;;;;;;;10.11;94.99;101271.56;5007920;28;20064;-48
2023/02/20 06:44:06;;;;;;;2.38;0.43;;;;;;;10.11;95.20;101276.31;5007853;28;20419;-47
2023/02/20 06:46:33;;;;;;;6.10;0.90;;;;;;;10.10;95.14;101253.38;5001867;28;20042;-47
2023/02/20 06:49:00;;;;;;;2.22;0.82;;;;;;;10.09;95.21;101276.63;5009853;28;20052;-46
2023/02/20 06:51:30;;;;;;;4.15;0.60;;;;;;;10.09;95.36;101273.88;5004331;28;20064;-47
2023/02/20 06:53:57;;;;;;;7.25;1.02;;;;;;;10.09;95.39;101281.34;4995168;28;20137;-47
2023/02/20 06:56:27;;;;;;;6.30;0.77;;;;;;;10.07;95.67;101287.22;5000036;28;20041;-49
2023/02/20 06:58:55;;;;;;;3.92;1.00;;;;;;;10.05;95.73;101283.97;5007168;28;20065;-46
2023/02/20 07:01:27;;;;;;;1.52;0.60;;;;;;;10.04;95.92;101287.88;5006659;28;20458;-51
2023/02/20 07:03:56;;;;;;;5.40;0.90;;;;;;;10.02;96.13;101281.88;5003992;28;20293;-49
2023/02/20 07:06:26;;;;;;;4.80;0.90;;;;;;;10.01;96.23;101277.47;5010338;28;20089;-46
2023/02/20 07:08:53;;;;;;;3.85;1.63;;;;;;;9.99;96.57;101279.75;4989135;28;20049;-46
2023/02/20 07:11:21;;;;;;;1.63;0.73;;;;;;;9.99;96.55;101273.41;5007058;28;20034;-52
2023/02/20 07:13:49;;;;;;;1.45;0.77;;;;;;;9.97;96.95;101276.50;5005143;28;20042;-46
2023/02/20 07:16:16;;;;;;;1.05;0.60;;;;;;;9.97;96.72;101279.28;5002892;28;22022;-47
2023/02/20 07:18:43;;;;;;;3.72;0.80;;;;;;;9.98;97.01;101280.88;4992890;28;20128;-48
2023/02/20 07:21:09;;;;;;;1.48;1.35;;;;;;;9.98;96.97;101283.66;4990686;28;20056;-46
2023/02/20 07:23:36;;;;;;;2.65;0.82;;;;;;;9.99;97.06;101279.75;5004613;28;20046;-46
2023/02/20 07:26:03;;;;;;;7.25;0.88;;;;;;;10.00;97.14;101275.03;4997787;28;20054;-47
2023/02/20 07:28:30;;;;;;;4.43;0.75;;;;;;;9.98;97.33;101283.66;5007217;28;20049;-46
2023/02/20 07:30:57;;;;;;;3.72;0.77;;;;;;;10.01;97.21;101287.72;4998367;28;20050;-50
2023/02/20 07:33:23;;;;;;;2.97;1.10;;;;;;;10.00;97.55;101281.38;5010846;28;20051;-47
2023/02/20 07:35:50;;;;;;;2.65;1.02;;;;;;;9.99;97.69;101290.81;5015349;28;20048;-47
2023/02/20 07:38:17;;;;;;;4.38;0.68;;;;;;;10.00;97.68;101288.88;4996168;28;20829;-48
2023/02/20 07:40:43;;;;;;;3.53;1.38;;;;;;;10.01;97.56;101285.75;4991991;28;20053;-49
2023/02/20 07:43:10;;;;;;;5.35;0.80;;;;;;;10.02;97.68;101294.88;5002054;28;20037;-49
2023/02/20 07:45:38;;;;;;;3.90;0.75;;;;;;;10.03;97.86;101302.88;5009748;28;20077;-48
2023/02/20 07:48:05;;;;;;;14.07;1.63;;;;;;;10.05;97.88;101291.47;5009323;28;20041;-48
2023/02/20 07:50:32;;;;;;;5.30;0.60;;;;;;;10.05;97.85;101294.22;5009282;28;20503;-47
2023/02/20 07:52:59;;;;;;;2.40;0.60;;;;;;;10.06;98.13;101284.81;5009533;28;20473;-48
2023/02/20 07:55:26;;;;;;;3.08;1.35;;;;;;;10.06;98.05;101284.81;5007608;28;20209;-49
2023/02/20 07:57:56;;;;;;;1.55;0.50;;;;;;;10.07;98.26;101275.34;4991682;28;20074;-48
2023/02/20 08:00:25;;;;;;;4.38;0.70;;;;;;;10.08;98.40;101283.31;5000606;28;20060;-47
2023/02/20 08:02:52;;;;;;;2.75;0.80;;;;;;;10.08;98.16;101288.03;4998885;28;20110;-52
2023/02/20 08:05:19;;;;;;;0.70;0.70;;;;;;;10.09;98.41;101279.41;4995581;28;20096;-48
2023/02/20 08:07:48;;;;;;;1.80;0.57;;;;;;;10.12;98.36;101280.69;5009131;28;20049;-52
2023/02/20 08:10:18;;;;;;;3.05;0.75;;;;;;;10.14;98.34;101289.53;4998192;28;20392;-46
2023/02/20 08:12:46;;;;;;;1.75;0.57;;;;;;;10.15;98.49;101282.84;4992824;28;20042;-54
2023/02/20 08:15:13;;;;;;;4.43;0.75;;;;;;;10.16;98.81;101282.53;4999325;28;20042;-47
2023/02/20 08:17:40;;;;;;;6.18;0.90;;;;;;;10.18;98.67;101294.06;4996213;28;20161;-48
2023/02/20 08:20:15;;;;;;;3.10;0.52;;;;;;;10.22;98.47;101299.75;5001730;28;20053;-47
2023/02/20 08:22:45;;;;;;;2.63;0.80;;;;;;;10.23;98.35;101293.91;4996468;28;20120;-46
2023/02/20 08:25:14;;;;;;;4.40;0.85;;;;;;;10.26;98.55;101303.50;5007488;28;20145;-46
2023/02/20 08:27:42;;;;;;;0.82;0.50;;;;;;;10.28;98.63;101298.44;5008403;28;20088;-46
2023/02/20 08:30:12;;;;;;;4.25;0.60;;;;;;;10.29;98.55;101306.41;4999162;28;20064;-46
2023/02/20 08:32:39;;;;;;;0.70;0.60;;;;;;;10.31;98.52;101309.66;4990744;28;20450;-46
2023/02/20 08:35:06;;;;;;;5.35;0.65;;;;;;;10.35;98.31;101307.06;5006540;28;20140;-46
2023/02/20 08:37:33;;;;;;;4.05;0.50;;;;;;;10.38;98.38;101312.72;5008728;28;20050;-47
2023/02/20 08:40:05;;;;;;;2.30;0.50;;;;;;;10.43;98.33;101316.47;5008922;28;20489;-46
2023/02/20 08:42:32;;;;;;;1.98;0.90;;;;;;;10.46;98.29;101310.28;5008968;28;20491;-46
2023/02/20 08:45:00;;;;;;;5.53;0.65;;;;;;;10.48;98.25;101316.28;5008643;28;20232;-52
2023/02/20 08:47:31;;;;;;;3.90;0.93;;;;;;;10.50;98.21;101314.81;4991782;28;20053;-47
2023/02/20 08:50:02;;;;;;;1.60;0.45;;;;;;;10.53;98.20;101316.13;5008887;28;20045;-50
2023/02/20 08:52:28;;;;;;;3.72;0.80;;;;;;;10.54;98.08;101301.13;5007439;28;20053;-47
2023/02/20 08:54:55;;;;;;;2.88;0.63;;;;;;;10.57;98.11;101311.53;5006064;28;20049;-46
2023/02/20 08:57:22;;;;;;;7.07;0.82;;;;;;;10.60;98.13;101308.91;5008675;28;20053;-46
2023/02/20 08:59:49;;;;;;;6.55;0.65;;;;;;;10.63;97.94;101330.41;5008593;28;20053;-47
2023/02/20 09:02:18;;;;;;;2.92;0.70;;;;;;;10.65;97.84;101317.03;5008404;28;20135;-46
2023/02/20 09:04:46;;;;;;;2.08;0.70;;;;;;;10.68;97.73;101312.78;5008649;28;20488;-45
2023/02/20 09:07:13;;;;;;;3.00;0.30;;;;;;;10.71;97.81;101321.25;5007594;28;20395;-48
2023/02/20 09:09:40;;;;;;;1.63;0.60;;;;;;;10.72;97.51;101320.09;4998128;28;20049;-46
2023/02/20 09:12:09;;;;;;;0.82;0.57;;;;;;;10.73;97.48;101330.03;5021987;28;20056;-47
2023/02/20 09:14:36;;;;;;;2.15;0.50;;;;;;;10.76;97.38;101317.47;5008413;28;20610;-46
2023/02/20 09:17:04;;;;;;;5.60;1.15;;;;;;;10.78;97.36;101313.22;5008357;28;20050;-46
2023/02/20 09:19:31;;;;;;;3.55;0.60;;;;;;;10.80;97.26;101326.78;4991220;28;20570;-45
2023/02/20 09:21:58;;;;;;;0.50;0.38;;;;;;;10.82;97.16;101321.69;5007834;28;20046;-48
2023/02/20 09:24:30;;;;;;;1.40;0.25;;;;;;;10.83;97.14;101320.53;5007728;28;20125;-50
2023/02/20 09:26:57;;;;;;;1.20;0.40;;;;;;;10.84;97.11;101327.72;5008388;28;20045;-46
2023/02/20 09:29:24;;;;;;;2.75;0.50;;;;;;;10.85;96.87;101323.81;5008272;28;20054;-46
2023/02/20 09:31:51;;;;;;;1.77;0.50;;;;;;;10.86;96.99;101326.22;4997046;28;20053;-48
2023/02/20 09:34:19;;;;;;;2.33;0.35;;;;;;;10.87;96.90;101324.28;5018922;28;20034;-46
2023/02/20 09:36:46;;;;;;;2.22;0.60;;;;;;;10.88;96.71;101318.41;5009621;28;20172;-50
2023/02/20 09:39:16;;;;;;;2.95;0.30;;;;;;;10.90;96.55;101329.97;5008307;28;20504;-46
2023/02/20 09:41:59;;;;;;;6.05;0.75;;;;;;;10.92;96.42;101319.38;5007284;28;20076;-47
2023/02/20 09:44:45;;;;;;;3.03;0.43;;;;;;;10.93;96.57;101309.91;5011260;28;20058;-45
2023/02/20 09:47:37;;;;;;;2.40;0.55;;;;;;;10.98;96.40;101320.81;5011799;28;20053;-46
2023/02/20 09:50:10;;;;;;;12.68;0.63;;;;;;;11.03;96.30;101317.03;5011400;28;20045;-52
2023/02/20 09:52:39;;;;;;;1.90;0.35;;;;;;;11.08;95.99;101313.25;5011374;28;20041;-45
2023/02/20 09:55:13;;;;;;;1.58;0.30;;;;;;;11.13;95.85;101308.31;4993935;28;20112;-46
2023/02/20 09:57:41;;;;;;;3.00;1.13;;;;;;;11.16;95.73;101317.94;5009595;28;20121;-46
2023/02/20 10:00:13;;;;;;;0.82;0.25;;;;;;;11.19;95.39;101301.44;5010385;28;20057;-46
2023/02/20 10:03:04;;;;;;;5.57;0.73;;;;;;;11.25;95.42;101313.16;5011345;28;20062;-45
2023/02/20 10:05:33;;;;;;;0.80;0.30;;;;;;;11.28;95.24;101298.63;5011534;28;20054;-49
2023/02/20 10:08:00;;;;;;;1.23;0.30;;;;;;;11.31;95.39;101287.66;5011481;28;20496;-46
2023/02/20 10:10:32;;;;;;;0.60;0.20;;;;;;;11.36;95.08;101297.72;5013475;28;20129;-45
2023/02/20 10:13:15;;;;;;;2.33;0.30;;;;;;;11.41;94.96;101295.56;5020571;28;20463;-45
2023/02/20 10:15:48;;;;;;;0.63;0.30;;;;;;;11.48;94.84;101287.56;5010510;28;20089;-46
2023/02/20 10:18:36;;;;;;;2.28;0.45;;;;;;;11.57;94.49;101298.56;5010380;28;20056;-49
2023/02/20 10:21:09;;;;;;;2.63;0.32;;;;;;;11.62;94.16;101292.81;5011462;28;20037;-46
2023/02/20 10:23:55;;;;;;;3.92;0.38;;;;;;;11.69;94.08;101281.19;5011297;28;20046;-52
2023/02/20 10:26:43;;;;;;;0.45;0.20;;;;;;;11.72;94.08;101286.91;4993436;28;20042;-45
2023/02/20 10:29:25;;;;;;;1.10;0.20;;;;;;;11.74;93.68;101262.41;5011084;28;20038;-50
2023/02/20 10:32:06;;;;;;;0.77;0.25;;;;;;;11.79;93.58;101258.59;5000441;28;20048;-45
2023/02/20 10:34:45;;;;;;;0.93;0.30;;;;;;;11.85;93.34;101246.94;5021137;28;20037;-48
2023/02/20 10:37:26;;;;;;;0.75;0.25;;;;;;;11.97;93.15;101232.28;5010734;28;20128;-52
2023/02/20 10:40:19;;;;;;;0.70;0.20;;;;;;;12.02;92.48;101237.66;5011274;28;20038;-46
2023/02/20 10:43:04;;;;;;;1.42;0.20;;;;;;;12.04;92.24;101238.13;5011082;28;20361;-46
2023/02/20 10:46:02;;;;;;;1.15;0.30;;;;;;;12.14;92.31;101240.44;5010807;28;20141;-46
2023/02/20 10:48:32;;;;;;;1.10;0.88;;;;;;;12.13;91.84;101224.94;5010794;28;20120;-47
2023/02/20 10:51:08;;;;;;;1.83;1.50;;;;;;;12.10;91.39;101225.63;5009588;28;20042;-45
2023/02/20 10:53:38;;;;;;;1.23;0.20;;;;;;;12.09;91.35;101237.88;5010537;28;20056;-47
2023/02/20 10:56:30;;;;;;;1.77;0.30;;;;;;;12.13;91.09;101247.13;5009807;28;20042;-48
2023/02/20 10:59:06;;;;;;;0.35;0.28;;;;;;;12.18;91.03;101244.94;5009923;28;20119;-46
2023/02/20 11:01:36;;;;;;;3.03;0.63;;;;;;;12.18;90.41;101250.50;5010116;28;20462;-50
2023/02/20 11:04:10;;;;;;;1.13;1.02;;;;;;;12.15;90.40;101256.75;5010860;28;20049;-46
2023/02/20 11:06:54;;;;;;;3.17;0.63;;;;;;;12.23;90.53;101280.03;5010085;28;20212;-46
2023/02/20 11:09:24;;;;;;;3.83;0.25;;;;;;;12.29;90.29;101273.09;4998307;28;20038;-48
2023/02/20 11:11:54;;;;;;;2.72;0.43;;;;;;;12.31;90.09;101270.75;5017982;28;20077;-48
2023/02/20 11:14:42;;;;;;;2.38;0.30;;;;;;;12.40;90.00;101281.78;4998939;28;20100;-46
2023/02/20 11:17:14;;;;;;;0.50;0.20;;;;;;;12.45;89.40;101270.44;5010063;28;20131;-48
2023/02/20 11:20:01;;;;;;;0.98;0.40;;;;;;;12.48;89.55;101265.03;5003366;28;20049;-46
2023/02/20 11:22:44;;;;;;;1.10;0.28;;;;;;;12.51;89.21;101272.66;4999224;28;20061;-46
2023/02/20 11:25:15;;;;;;;0.73;0.20;;;;;;;12.51;89.24;101263.53;5009486;28;20077;-46
2023/02/20 11:27:42;;;;;;;0.50;0.17;;;;;;;12.50;88.95;101267.44;5009906;28;20065;-48
2023/02/20 11:30:21;;;;;;;0.30;0.30;;;;;;;12.48;88.77;101253.91;5005020;28;20035;-46
2023/02/20 11:32:49;;;;;;;2.55;0.35;;;;;;;12.48;88.89;101259.47;5004438;28;20094;-46
2023/02/20 11:35:16;;;;;;;0.47;0.22;;;;;;;12.48;88.81;101245.59;5021148;28;20515;-46
2023/02/20 11:37:47;;;;;;;2.88;0.22;;;;;;;12.51;88.57;101246.84;5009498;28;20116;-46
2023/02/20 11:40:29;;;;;;;0.98;0.50;;;;;;;12.59;88.41;101255.09;5007530;28;20038;-46
2023/02/20 11:43:12;;;;;;;1.90;0.60;;;;;;;12.70;88.29;101247.09;5009447;28;20203;-46
2023/02/20 11:45:39;;;;;;;2.47;0.32;;;;;;;12.74;87.94;101253.56;5010274;28;20520;-47
2023/02/20 11:48:09;;;;;;;1.25;0.13;;;;;;;12.77;87.76;101262.03;5007101;28;20407;-51
2023/02/20 11:50:50;;;;;;;1.45;0.40;;;;;;;12.80;87.45;101239.13;5009051;28;20052;-46
2023/02/20 11:53:34;;;;;;;1.23;0.43;;;;;;;12.84;87.44;101240.03;5009668;28;20053;-50
2023/02/20 11:56:12;;;;;;;3.17;0.50;;;;;;;12.92;87.47;101251.38;5009524;28;20284;-48
2023/02/20 11:58:41;;;;;;;1.83;0.60;;;;;;;12.99;87.09;101257.16;4997399;28;20057;-53
2023/02/20 12:01:28;;;;;;;3.92;0.50;;;;;;;12.96;86.47;101253.13;5008675;28;20046;-46